Meteo Giornale » Osservazioni meteo Stati Uniti (USA) » Edwards
ore: 10:55 - Osservazioni Meteo Edwards
Lat. 34° 55' N Lon. 117° 54' W Alt. 702 metri s.l.m.
31 °C
Sereno
Temp. 24 Ore
22 °C
36 °C
Sud-Ovest
18.5 Km/h
Dew point -5 °C
Umidità 9 %
Visibilità 0 Km
Il sole sorge alle ore 06:23
Il sole tramonta alle ore 19:19
| Data e Ora | Cielo e Fenomeni | T °C | DP °C | Um. % | Pres. hPa | Vis. km | Vento km/h | |
|---|---|---|---|---|---|---|---|---|
| Oggi h: 10:55 | Sereno | 31 | -5 | 9 | 1013 | 0 | SO 18.5 | |
| Oggi h: 09:55 | Poco Nuvoloso | 29 | 2 | 17 | 1013 | 0 | O/SO 24 | |
| Oggi h: 08:55 | Poco Nuvoloso | 26 | 6 | 27 | 1013 | 0 | SO 20.3 | |
| Oggi h: 07:55 | Poco Nuvoloso | 24 | 9 | 38 | 1013 | 0 | SO 16.7 | |
| Oggi h: 06:55 | Poco Nuvoloso | 22 | 10 | 46 | 1012 | 0 | O/SO 22.2 | |
| Oggi h: 05:55 | Poco Nuvoloso | 22 | 10 | 46 | 1012 | 0 | O/SO 18.5 | |
| Oggi h: 04:55 | Sereno | 23 | 10 | 43 | 1011 | 10 | O/SO 27.8 | |
| Oggi h: 03:55 | Nuvoloso | 23 | 10 | 43 | 1011 | 10 | SO 29.6 | |
| Oggi h: 03:25 | Nuvoloso | 23 | 10 | 43 | 1012 | 10 | O/SO 25.9 | |
| Oggi h: 02:55 | Molto Nuvoloso | 23 | 9 | 40 | 1011 | 10 | SO 11.1 | |
| Oggi h: 02:10 | Nuvoloso | 23 | 10 | 43 | 1011 | 10 | SO 16.7 | |
| Oggi h: 01:55 | Molto Nuvoloso | 23 | 11 | 46 | 1012 | 10 | O/SO 16.7 | |
| Oggi h: 01:40 | Nuvoloso | 23 | 11 | 46 | 1012 | 10 | O/SO 18.5 | |
| Oggi h: 00:55 | Molto Nuvoloso | 24 | 10 | 41 | 1012 | 10 | O/SO 16.7 | |
| Oggi h: 00:40 | Molto Nuvoloso | 24 | 11 | 43 | 1012 | 10 | O/SO 16.7 | |
| Oggi h: 00:10 | Molto Nuvoloso | 24 | 10 | 41 | 1012 | 10 | O/SO 18.5 | |
| Ieri h: 23:55 | Nuvoloso | 25 | 10 | 38 | 1012 | 10 | O/SO 20.3 | |
| Ieri h: 22:55 | Molto Nuvoloso | 25 | 8 | 33 | 1012 | 10 | O/SO 18.5 | |
| Ieri h: 22:25 | Nuvoloso | 26 | 9 | 34 | 1012 | 10 | O/SO 29.6 | |
| Ieri h: 22:10 | Molto Nuvoloso | 26 | 10 | 36 | 1012 | 10 | O/SO 27.8 | |
| Ieri h: 21:55 | Nuvoloso | 26 | 11 | 39 | 1012 | 10 | O/SO 22.2 | |
| Ieri h: 20:55 | Poco Nuvoloso | 27 | 13 | 42 | 1011 | 10 | SO 22.2 | |
| Ieri h: 19:55 | Sereno | 29 | 10 | 30 | 1010 | 10 | SO 20.3 | |
| Ieri h: 18:55 | Sereno | 31 | 7 | 22 | 1010 | 10 | SO 29.6 | |
| Ieri h: 17:55 | Nuvoloso | 32 | 8 | 22 | 1010 | 0 | SO 27.8 | |
| Ieri h: 16:55 | Nuvoloso | 34 | 8 | 20 | 1010 | 0 | O/SO 38.8 | |
| Ieri h: 15:55 | Nuvoloso | 35 | 6 | 16 | 1010 | 0 | O/SO 38.8 | |
| Ieri h: 14:55 | Nuvoloso | 36 | 6 | 15 | 1011 | 0 | O/SO 33.3 | |
| Ieri h: 14:14 | Nuvoloso | 35 | 5 | 15 | 1011 | 0 | O/SO 38.8 | |
| Ieri h: 13:55 | Nuvoloso | 35 | 4 | 14 | 1011 | 0 | O/SO 33.3 | |
| Ieri h: 13:03 | Nuvoloso | 35 | 3 | 13 | 1012 | 0 | SO 25.9 | |
| Ieri h: 12:55 | Nuvoloso | 34 | 2 | 13 | 1012 | 0 | O/SO 20.3 | |
| Ieri h: 11:55 | Nuvoloso | 33 | 5 | 17 | 1012 | 0 | SO 18.5 | |



